createdAt,value
2023-03-16T00:02:44.417Z,1.62
2023-03-16T00:07:36.115Z,1.62
2023-03-16T00:12:27.857Z,1.15
2023-03-16T00:17:20.785Z,1.80
2023-03-16T00:22:14.785Z,1.58
2023-03-16T00:27:06.454Z,1.56
2023-03-16T00:31:58.203Z,0.84
2023-03-16T00:36:49.981Z,1.87
2023-03-16T00:41:42.924Z,0.29
2023-03-16T00:46:34.729Z,1.87
2023-03-16T00:51:26.529Z,1.91
2023-03-16T00:56:18.444Z,1.06
2023-03-16T01:01:14.185Z,2.04
2023-03-16T01:06:11.846Z,-0.86
2023-03-16T01:11:11.940Z,2.14
2023-03-16T01:16:04.144Z,1.89
2023-03-16T01:20:55.965Z,1.45
2023-03-16T01:25:53.058Z,0.73
2023-03-16T01:30:44.773Z,1.70
2023-03-16T01:35:36.535Z,2.26
2023-03-16T01:40:28.512Z,1.77
2023-03-16T01:45:58.126Z,2.33
2023-03-16T01:50:52.513Z,1.91
2023-03-16T01:55:44.659Z,1.48
2023-03-16T02:00:36.682Z,2.04
2023-03-16T02:05:58.731Z,2.17
2023-03-16T02:10:54.704Z,1.62
2023-03-16T02:15:47.900Z,2.14
2023-03-16T02:21:01.920Z,1.54
2023-03-16T02:26:12.459Z,2.15
2023-03-16T02:31:06.173Z,1.74
2023-03-16T02:35:58.477Z,1.36
2023-03-16T02:41:20.811Z,2.11
2023-03-16T02:46:21.647Z,2.08
2023-03-16T02:51:13.577Z,1.06
2023-03-16T02:56:05.687Z,1.61
2023-03-16T03:00:59.906Z,1.80
2023-03-16T03:05:51.597Z,1.69
2023-03-16T03:10:43.280Z,2.21
2023-03-16T03:15:35.795Z,1.95
2023-03-16T03:20:33.960Z,1.62
2023-03-16T03:25:25.821Z,2.20
2023-03-16T03:30:21.614Z,2.24
2023-03-16T03:35:14.832Z,1.30
2023-03-16T03:40:10.323Z,0.94
2023-03-16T03:45:02.229Z,1.75
2023-03-16T03:49:53.951Z,-1.21
2023-03-16T03:54:45.984Z,2.07
2023-03-16T03:59:43.711Z,0.64
2023-03-16T04:05:00.969Z,1.09
2023-03-16T04:09:54.418Z,1.25
2023-03-16T04:14:54.490Z,2.13
2023-03-16T04:19:48.137Z,2.11
2023-03-16T04:24:44.871Z,0.83
2023-03-16T04:29:39.049Z,2.13
2023-03-16T04:34:31.706Z,1.69
2023-03-16T04:39:26.508Z,1.49
2023-03-16T04:44:19.729Z,1.95
2023-03-16T04:49:12.055Z,2.42
2023-03-16T04:54:07.686Z,2.43
2023-03-16T04:59:02.778Z,2.26
2023-03-16T05:04:00.167Z,2.13
2023-03-16T05:08:54.532Z,1.93
2023-03-16T05:13:46.429Z,1.92
2023-03-16T05:18:38.172Z,2.28
2023-03-16T05:23:31.584Z,1.93
2023-03-16T05:28:27.487Z,1.58
2023-03-16T05:33:26.279Z,2.64
2023-03-16T05:38:27.552Z,0.61
2023-03-16T05:43:21.715Z,2.38
2023-03-16T05:48:16.135Z,2.76
2023-03-16T05:53:11.538Z,2.26
2023-03-16T05:58:05.980Z,-1.66
2023-03-16T06:03:00.095Z,2.31
2023-03-16T06:07:55.574Z,2.85
2023-03-16T06:12:49.921Z,2.59
2023-03-16T06:17:43.529Z,3.04
2023-03-16T06:22:35.369Z,3.10
2023-03-16T06:27:27.303Z,2.56
2023-03-16T06:32:42.182Z,2.47
2023-03-16T06:37:34.235Z,2.48
2023-03-16T06:42:31.325Z,3.63
2023-03-16T06:47:23.099Z,3.20
2023-03-16T06:52:15.001Z,3.32
2023-03-16T06:57:07.373Z,3.16
2023-03-16T07:01:59.068Z,3.84
2023-03-16T07:06:51.437Z,0.13
2023-03-16T07:11:43.438Z,2.85
2023-03-16T07:16:35.174Z,4.19
2023-03-16T07:21:29.342Z,4.53
2023-03-16T07:26:21.535Z,3.45
2023-03-16T07:31:18.381Z,4.17
2023-03-16T07:36:11.664Z,5.16
2023-03-16T07:41:09.960Z,4.10
2023-03-16T07:46:04.221Z,5.69
2023-03-16T07:50:56.154Z,5.94
2023-03-16T07:55:49.391Z,6.27
2023-03-16T08:00:42.764Z,6.54
2023-03-16T08:05:34.594Z,6.34
2023-03-16T08:10:35.887Z,6.77
2023-03-16T08:15:34.986Z,5.94
2023-03-16T08:20:34.331Z,6.87
2023-03-16T08:25:26.746Z,6.46
2023-03-16T08:30:27.323Z,6.61
2023-03-16T08:35:36.278Z,6.76
2023-03-16T08:40:29.667Z,7.55
2023-03-16T08:45:24.325Z,7.70
2023-03-16T08:50:16.329Z,6.32
2023-03-16T08:55:11.001Z,5.85
2023-03-16T09:00:08.815Z,6.82
2023-03-16T09:05:00.391Z,6.41
2023-03-16T09:09:52.731Z,6.11
2023-03-16T09:14:45.998Z,6.59
2023-03-16T09:19:56.290Z,6.71
2023-03-16T09:24:49.680Z,7.75
2023-03-16T09:29:42.941Z,6.93
2023-03-16T09:34:34.763Z,6.57
2023-03-16T09:39:26.370Z,8.38
2023-03-16T09:44:29.288Z,7.42
2023-03-16T09:49:26.020Z,7.95
2023-03-16T09:54:42.303Z,7.60
2023-03-16T09:59:34.844Z,8.02
2023-03-16T10:04:41.488Z,7.40
2023-03-16T10:09:53.450Z,7.58
2023-03-16T10:14:57.718Z,7.88
2023-03-16T10:20:00.079Z,8.09
2023-03-16T10:24:57.968Z,8.52
2023-03-16T10:29:49.904Z,7.71
2023-03-16T10:34:45.528Z,8.64
2023-03-16T10:39:42.927Z,9.27
2023-03-16T10:44:40.319Z,9.27
2023-03-16T10:49:40.380Z,9.28
2023-03-16T10:54:39.170Z,9.33
2023-03-16T10:59:34.418Z,9.52
2023-03-16T11:04:31.569Z,9.57
2023-03-16T11:09:33.159Z,9.66
2023-03-16T11:14:29.055Z,10.33
2023-03-16T11:19:26.049Z,9.28
2023-03-16T11:24:34.722Z,9.15
2023-03-16T11:29:52.748Z,10.21
2023-03-16T11:34:45.013Z,9.36
2023-03-16T11:39:42.761Z,9.66
2023-03-16T11:44:42.110Z,10.14
2023-03-16T11:49:44.458Z,10.14
2023-03-16T11:54:42.386Z,10.41
2023-03-16T12:00:01.497Z,9.99
2023-03-16T12:05:13.494Z,10.30
2023-03-16T12:10:24.100Z,10.98
2023-03-16T12:15:38.452Z,10.31
2023-03-16T12:20:41.829Z,10.76
2023-03-16T12:25:38.160Z,11.40
2023-03-16T12:30:50.994Z,11.43
2023-03-16T12:36:10.651Z,11.21
2023-03-16T12:41:39.677Z,11.58
2023-03-16T12:46:37.368Z,10.36
2023-03-16T12:51:37.260Z,11.68
2023-03-16T12:56:44.173Z,11.41
2023-03-16T13:01:43.743Z,11.40
2023-03-16T13:06:36.719Z,11.90
2023-03-16T13:11:28.687Z,11.82
2023-03-16T13:16:32.324Z,11.38
2023-03-16T13:21:39.866Z,11.10
2023-03-16T13:26:43.788Z,11.87
2023-03-16T13:31:39.036Z,11.72
2023-03-16T13:36:32.130Z,11.38
2023-03-16T13:41:24.837Z,11.42
2023-03-16T13:46:22.402Z,12.10
2023-03-16T13:51:20.921Z,11.13
2023-03-16T13:56:19.320Z,11.25
2023-03-16T14:01:20.648Z,10.38
2023-03-16T14:06:30.481Z,10.77
2023-03-16T14:11:22.480Z,11.10
2023-03-16T14:16:19.892Z,11.64
2023-03-16T14:21:22.942Z,11.47
2023-03-16T14:26:16.749Z,11.17
2023-03-16T14:31:13.055Z,11.78
2023-03-16T14:36:19.661Z,11.90
2023-03-16T14:41:21.501Z,11.81
2023-03-16T14:46:19.037Z,11.96
2023-03-16T14:51:14.366Z,10.39
2023-03-16T14:56:13.516Z,12.06
2023-03-16T15:01:06.373Z,12.16
2023-03-16T15:05:58.075Z,11.73
2023-03-16T15:10:50.865Z,11.85
2023-03-16T15:15:43.020Z,10.53
2023-03-16T15:20:41.379Z,10.87
2023-03-16T15:25:46.696Z,11.69
2023-03-16T15:30:39.165Z,11.67
2023-03-16T15:35:30.949Z,11.74
2023-03-16T15:40:26.232Z,10.62
2023-03-16T15:45:21.346Z,11.13
2023-03-16T15:50:15.648Z,11.52
2023-03-16T15:55:22.603Z,10.75
2023-03-16T16:00:27.239Z,10.05
2023-03-16T16:05:19.059Z,9.70
2023-03-16T16:10:14.282Z,11.24
2023-03-16T16:15:29.677Z,11.09
2023-03-16T16:20:23.262Z,11.05
2023-03-16T16:25:15.643Z,10.56
2023-03-16T16:30:27.505Z,10.46
2023-03-16T16:35:22.096Z,10.96
2023-03-16T16:40:17.299Z,10.84
2023-03-16T16:45:27.651Z,9.97
2023-03-16T16:50:23.168Z,10.67
2023-03-16T16:55:15.152Z,10.62
2023-03-16T17:00:17.470Z,10.08
2023-03-16T17:05:21.958Z,10.15
2023-03-16T17:10:17.411Z,10.34
2023-03-16T17:15:29.836Z,10.25
2023-03-16T17:20:25.480Z,10.15
2023-03-16T17:25:17.381Z,9.77
2023-03-16T17:30:25.439Z,9.94
2023-03-16T17:35:18.047Z,9.31
2023-03-16T17:40:21.511Z,9.73
2023-03-16T17:45:19.035Z,9.07
2023-03-16T17:50:31.482Z,9.60
2023-03-16T17:55:24.788Z,9.45
2023-03-16T18:00:26.058Z,9.45
2023-03-16T18:05:27.183Z,8.59
2023-03-16T18:10:21.899Z,8.53
2023-03-16T18:15:20.997Z,9.25
2023-03-16T18:20:27.698Z,8.74
2023-03-16T18:25:39.237Z,8.36
2023-03-16T18:30:32.867Z,8.46
2023-03-16T18:35:24.916Z,9.13
2023-03-16T18:40:18.733Z,8.92
2023-03-16T18:45:12.544Z,8.97
2023-03-16T18:50:04.742Z,8.51
2023-03-16T18:54:58.244Z,8.28
2023-03-16T18:59:50.973Z,8.63
2023-03-16T19:04:42.994Z,7.52
2023-03-16T19:09:35.849Z,7.39
2023-03-16T19:14:32.091Z,8.13
2023-03-16T19:19:24.900Z,8.73
2023-03-16T19:24:34.291Z,8.73
2023-03-16T19:29:34.421Z,7.98
2023-03-16T19:34:26.595Z,8.13
2023-03-16T19:39:18.317Z,8.60
2023-03-16T19:44:23.718Z,8.48
2023-03-16T19:49:22.866Z,8.48
2023-03-16T19:54:33.745Z,7.95
2023-03-16T19:59:31.155Z,7.65
2023-03-16T20:04:25.899Z,7.72
2023-03-16T20:09:18.275Z,7.32
2023-03-16T20:14:26.702Z,8.27
2023-03-16T20:19:20.880Z,7.69
2023-03-16T20:24:19.218Z,8.31
2023-03-16T20:29:31.121Z,7.69
2023-03-16T20:34:28.831Z,7.80
2023-03-16T20:39:21.002Z,7.99
2023-03-16T20:44:15.535Z,7.61
2023-03-16T20:49:31.406Z,7.88
2023-03-16T20:54:23.133Z,6.90
2023-03-16T20:59:23.893Z,8.14
2023-03-16T21:04:25.648Z,7.81
2023-03-16T21:09:18.753Z,8.20
2023-03-16T21:14:17.009Z,7.70
2023-03-16T21:19:14.726Z,7.06
2023-03-16T21:24:06.761Z,8.26
2023-03-16T21:29:02.014Z,8.31
2023-03-16T21:33:54.913Z,7.94
2023-03-16T21:38:47.788Z,8.08
2023-03-16T21:43:39.754Z,8.13
2023-03-16T21:48:41.587Z,8.27
2023-03-16T21:53:33.402Z,8.23
2023-03-16T21:58:25.276Z,8.00
2023-03-16T22:03:24.867Z,8.26
2023-03-16T22:08:23.124Z,7.34
2023-03-16T22:13:14.816Z,7.35
2023-03-16T22:18:11.232Z,7.79
2023-03-16T22:23:02.952Z,7.36
2023-03-16T22:27:54.694Z,7.97
2023-03-16T22:32:49.413Z,8.29
2023-03-16T22:37:41.358Z,7.80
2023-03-16T22:42:38.589Z,8.36
2023-03-16T22:47:32.584Z,7.47
2023-03-16T22:52:32.677Z,6.80
2023-03-16T22:57:24.642Z,7.81
2023-03-16T23:02:20.895Z,8.14
2023-03-16T23:07:13.993Z,8.37
2023-03-16T23:12:13.728Z,7.37
2023-03-16T23:17:17.657Z,6.82
2023-03-16T23:22:11.045Z,7.68
2023-03-16T23:27:03.906Z,8.08
2023-03-16T23:31:56.598Z,7.98
2023-03-16T23:36:49.550Z,7.55
2023-03-16T23:41:43.933Z,8.01
2023-03-16T23:46:35.638Z,7.22
2023-03-16T23:51:33.432Z,7.28
2023-03-16T23:56:27.019Z,8.06
